EVA801 RCTP-VMMC
Flight info
| Callsign | EVA801 |
|---|---|
| Flight time | 1h 24m |
| Altitude | 36000 |
| Route | CHALI1B CHALI T3 MKG A1 ELATO J101 NEDLE/N0394F220 J101 SMT |
| Aircraft | A333/H-SDE3GHIJ2J3J5M1RVWXY/LB2D1 |
Departure
| Time | 2026-04-22 03:32 |
|---|---|
| Airport | Taiwan Taoyuan International Airport (RCTP) |
Arrival
| Time | 2026-04-22 04:57 |
|---|---|
| Airport | Macau International Airport (VMMC) |
| Time | Latitude | Longitude | Altitude | Speed | Heading |
|---|---|---|---|---|---|
| 2026-04-22 03:10 | 25.07720 | 121.23948 | 104 ft | 0 kts | 319° |
| 2026-04-22 03:24 | 25.07711 | 121.23957 | 104 ft | 4 kts | 319° |
| 2026-04-22 03:24 | 25.07690 | 121.23976 | 103 ft | 4 kts | 319° |
| 2026-04-22 03:24 | 25.07674 | 121.23992 | 104 ft | 4 kts | 323° |
| 2026-04-22 03:25 | 25.07651 | 121.24003 | 103 ft | 4 kts | 1° |
| 2026-04-22 03:25 | 25.07630 | 121.23995 | 106 ft | 3 kts | 49° |
| 2026-04-22 03:25 | 25.07614 | 121.23974 | 103 ft | 2 kts | 49° |
| 2026-04-22 03:25 | 25.07613 | 121.23973 | 103 ft | 0 kts | 49° |
| 2026-04-22 03:28 | 25.07638 | 121.24005 | 104 ft | 11 kts | 49° |
| 2026-04-22 03:28 | 25.07699 | 121.24080 | 103 ft | 14 kts | 48° |
| 2026-04-22 03:28 | 25.07761 | 121.24161 | 105 ft | 14 kts | 50° |
| 2026-04-22 03:29 | 25.07824 | 121.24242 | 103 ft | 14 kts | 49° |
| 2026-04-22 03:29 | 25.07891 | 121.24326 | 103 ft | 15 kts | 49° |
| 2026-04-22 03:29 | 25.07960 | 121.24412 | 107 ft | 16 kts | 48° |
| 2026-04-22 03:29 | 25.08047 | 121.24525 | 105 ft | 22 kts | 46° |
| 2026-04-22 03:30 | 25.08158 | 121.24663 | 103 ft | 27 kts | 49° |
| 2026-04-22 03:30 | 25.08289 | 121.24830 | 103 ft | 31 kts | 49° |
| 2026-04-22 03:30 | 25.08403 | 121.24972 | 103 ft | 22 kts | 49° |
| 2026-04-22 03:30 | 25.08416 | 121.25092 | 104 ft | 17 kts | 131° |
| 2026-04-22 03:31 | 25.08317 | 121.25166 | 98 ft | 15 kts | 185° |
| 2026-04-22 03:31 | 25.08256 | 121.25122 | 97 ft | 0 kts | 225° |
| 2026-04-22 03:31 | 25.08235 | 121.25099 | 101 ft | 19 kts | 225° |
| 2026-04-22 03:31 | 25.08009 | 121.24822 | 98 ft | 76 kts | 230° |
| 2026-04-22 03:32 | 25.07564 | 121.24237 | 100 ft | 124 kts | 229° |
| 2026-04-22 03:32 | 25.06908 | 121.23396 | 117 ft | 161 kts | 230° |
| 2026-04-22 03:32 | 25.06178 | 121.22468 | 572 ft | 164 kts | 229° |
| 2026-04-22 03:32 | 25.05419 | 121.21514 | 1174 ft | 164 kts | 229° |
| 2026-04-22 03:33 | 25.04665 | 121.20560 | 1779 ft | 168 kts | 229° |
| 2026-04-22 03:33 | 25.03859 | 121.19534 | 2025 ft | 186 kts | 229° |
| 2026-04-22 03:33 | 25.02983 | 121.18412 | 2269 ft | 206 kts | 229° |
| 2026-04-22 03:33 | 25.02196 | 121.17010 | 2556 ft | 228 kts | 249° |
| 2026-04-22 03:34 | 25.02149 | 121.15188 | 2857 ft | 254 kts | 284° |
| 2026-04-22 03:34 | 25.02931 | 121.13378 | 3446 ft | 266 kts | 296° |
| 2026-04-22 03:34 | 25.03888 | 121.11628 | 4133 ft | 271 kts | 297° |
| 2026-04-22 03:34 | 25.04882 | 121.09850 | 4912 ft | 272 kts | 297° |
| 2026-04-22 03:35 | 25.05865 | 121.08066 | 5715 ft | 272 kts | 297° |
| 2026-04-22 03:35 | 25.06836 | 121.06277 | 6452 ft | 274 kts | 297° |
| 2026-04-22 03:35 | 25.07818 | 121.04456 | 7193 ft | 277 kts | 297° |
| 2026-04-22 03:35 | 25.08810 | 121.02607 | 7925 ft | 281 kts | 297° |
| 2026-04-22 03:36 | 25.09815 | 121.00737 | 8694 ft | 283 kts | 297° |
| 2026-04-22 03:36 | 25.10811 | 120.98879 | 9413 ft | 286 kts | 297° |
| 2026-04-22 03:36 | 25.11820 | 120.96968 | 10147 ft | 289 kts | 294° |
| 2026-04-22 03:36 | 25.12420 | 120.94837 | 10555 ft | 297 kts | 270° |
| 2026-04-22 03:37 | 25.11987 | 120.92569 | 10825 ft | 312 kts | 243° |
| 2026-04-22 03:37 | 25.10618 | 120.90675 | 11082 ft | 330 kts | 225° |
| 2026-04-22 03:37 | 25.08872 | 120.88948 | 11516 ft | 340 kts | 223° |
| 2026-04-22 03:37 | 25.07087 | 120.87195 | 12100 ft | 344 kts | 224° |
| 2026-04-22 03:38 | 25.05314 | 120.85396 | 12721 ft | 348 kts | 225° |
| 2026-04-22 03:38 | 25.03547 | 120.83556 | 13342 ft | 351 kts | 225° |
| 2026-04-22 03:38 | 25.01792 | 120.81702 | 13919 ft | 354 kts | 226° |
| 2026-04-22 03:38 | 25.00006 | 120.79799 | 14499 ft | 356 kts | 226° |
| 2026-04-22 03:39 | 24.98243 | 120.77913 | 15085 ft | 358 kts | 226° |
| 2026-04-22 03:39 | 24.96443 | 120.75983 | 15579 ft | 363 kts | 226° |
| 2026-04-22 03:39 | 24.94626 | 120.74033 | 16077 ft | 366 kts | 226° |
| 2026-04-22 03:39 | 24.92792 | 120.72063 | 16582 ft | 370 kts | 226° |
| 2026-04-22 03:40 | 24.90939 | 120.70074 | 17116 ft | 372 kts | 226° |
| 2026-04-22 03:40 | 24.89072 | 120.68069 | 17606 ft | 375 kts | 226° |
| 2026-04-22 03:40 | 24.87213 | 120.66075 | 18073 ft | 378 kts | 226° |
| 2026-04-22 03:40 | 24.85316 | 120.64041 | 18536 ft | 380 kts | 226° |
| 2026-04-22 03:41 | 24.83415 | 120.62003 | 19024 ft | 382 kts | 226° |
| 2026-04-22 03:41 | 24.81502 | 120.59954 | 19437 ft | 385 kts | 226° |
| 2026-04-22 03:41 | 24.79591 | 120.57907 | 19852 ft | 388 kts | 226° |
| 2026-04-22 03:41 | 24.77650 | 120.55830 | 20303 ft | 390 kts | 226° |
| 2026-04-22 03:42 | 24.75701 | 120.53744 | 20684 ft | 392 kts | 226° |
| 2026-04-22 03:42 | 24.73721 | 120.51657 | 21086 ft | 395 kts | 224° |
| 2026-04-22 03:42 | 24.71577 | 120.49729 | 21461 ft | 399 kts | 220° |
| 2026-04-22 03:42 | 24.69325 | 120.47916 | 21828 ft | 402 kts | 218° |
| 2026-04-22 03:43 | 24.67017 | 120.46163 | 22215 ft | 404 kts | 217° |
| 2026-04-22 03:43 | 24.64672 | 120.44426 | 22535 ft | 407 kts | 217° |
| 2026-04-22 03:43 | 24.62305 | 120.42679 | 22861 ft | 411 kts | 217° |
| 2026-04-22 03:43 | 24.59928 | 120.40917 | 23221 ft | 412 kts | 217° |
| 2026-04-22 03:44 | 24.57575 | 120.39159 | 23551 ft | 414 kts | 217° |
| 2026-04-22 03:44 | 24.55186 | 120.37365 | 23868 ft | 416 kts | 217° |
| 2026-04-22 03:44 | 24.52786 | 120.35557 | 24181 ft | 419 kts | 217° |
| 2026-04-22 03:44 | 24.50373 | 120.33734 | 24496 ft | 421 kts | 217° |
| 2026-04-22 03:45 | 24.47981 | 120.31926 | 24803 ft | 423 kts | 218° |
| 2026-04-22 03:45 | 24.45542 | 120.30080 | 25118 ft | 425 kts | 218° |
| 2026-04-22 03:45 | 24.43142 | 120.28238 | 25413 ft | 427 kts | 218° |
| 2026-04-22 03:45 | 24.40666 | 120.26316 | 25736 ft | 429 kts | 218° |
| 2026-04-22 03:46 | 24.38258 | 120.24439 | 26032 ft | 431 kts | 219° |
| 2026-04-22 03:46 | 24.35805 | 120.22524 | 26346 ft | 432 kts | 219° |
| 2026-04-22 03:46 | 24.33340 | 120.20603 | 26615 ft | 435 kts | 219° |
| 2026-04-22 03:46 | 24.30859 | 120.18673 | 26908 ft | 436 kts | 219° |
| 2026-04-22 03:47 | 24.28372 | 120.16740 | 27184 ft | 439 kts | 219° |
| 2026-04-22 03:47 | 24.25901 | 120.14824 | 27469 ft | 440 kts | 219° |
| 2026-04-22 03:47 | 24.23384 | 120.12873 | 27730 ft | 442 kts | 219° |
| 2026-04-22 03:47 | 24.20865 | 120.10923 | 28004 ft | 444 kts | 219° |
| 2026-04-22 03:48 | 24.18363 | 120.08987 | 28287 ft | 445 kts | 219° |
| 2026-04-22 03:48 | 24.15825 | 120.07023 | 28517 ft | 447 kts | 219° |
| 2026-04-22 03:48 | 24.13274 | 120.05051 | 28766 ft | 449 kts | 219° |
| 2026-04-22 03:48 | 24.10707 | 120.03068 | 29014 ft | 451 kts | 219° |
| 2026-04-22 03:49 | 24.08133 | 120.01083 | 29268 ft | 452 kts | 219° |
| 2026-04-22 03:49 | 24.05543 | 119.99086 | 29516 ft | 454 kts | 219° |
| 2026-04-22 03:49 | 24.02959 | 119.97094 | 29761 ft | 456 kts | 219° |
| 2026-04-22 03:49 | 24.00391 | 119.95113 | 29987 ft | 457 kts | 219° |
| 2026-04-22 03:50 | 23.97782 | 119.93099 | 30214 ft | 459 kts | 219° |
| 2026-04-22 03:50 | 23.95165 | 119.91083 | 30448 ft | 460 kts | 219° |
| 2026-04-22 03:50 | 23.92545 | 119.89066 | 30676 ft | 461 kts | 219° |
| 2026-04-22 03:50 | 23.89897 | 119.87029 | 30901 ft | 462 kts | 219° |
| 2026-04-22 03:51 | 23.87294 | 119.85025 | 31114 ft | 463 kts | 219° |
| 2026-04-22 03:51 | 23.84642 | 119.82983 | 31367 ft | 464 kts | 219° |
| 2026-04-22 03:51 | 23.81999 | 119.80954 | 31698 ft | 462 kts | 219° |
| 2026-04-22 03:51 | 23.79403 | 119.78966 | 32037 ft | 460 kts | 219° |
| 2026-04-22 03:52 | 23.76782 | 119.76957 | 32346 ft | 458 kts | 219° |
| 2026-04-22 03:52 | 23.74164 | 119.74950 | 32638 ft | 457 kts | 219° |
| 2026-04-22 03:52 | 23.71563 | 119.72958 | 32941 ft | 456 kts | 219° |
| 2026-04-22 03:52 | 23.69000 | 119.70995 | 33214 ft | 455 kts | 219° |
| 2026-04-22 03:53 | 23.66398 | 119.69003 | 33489 ft | 454 kts | 219° |
| 2026-04-22 03:53 | 23.63806 | 119.67018 | 33792 ft | 453 kts | 219° |
| 2026-04-22 03:53 | 23.61329 | 119.64907 | 34056 ft | 449 kts | 225° |
| 2026-04-22 03:53 | 23.59171 | 119.62530 | 34295 ft | 444 kts | 232° |
| 2026-04-22 03:54 | 23.57310 | 119.59847 | 34530 ft | 442 kts | 238° |
| 2026-04-22 03:54 | 23.55591 | 119.57064 | 34753 ft | 441 kts | 239° |
| 2026-04-22 03:54 | 23.53933 | 119.54241 | 34974 ft | 441 kts | 240° |
| 2026-04-22 03:54 | 23.52311 | 119.51412 | 35178 ft | 440 kts | 240° |
| 2026-04-22 03:55 | 23.50711 | 119.48605 | 35344 ft | 441 kts | 240° |
| 2026-04-22 03:55 | 23.49087 | 119.45761 | 35566 ft | 441 kts | 240° |
| 2026-04-22 03:55 | 23.47458 | 119.42924 | 35787 ft | 440 kts | 240° |
| 2026-04-22 03:55 | 23.45827 | 119.40097 | 35886 ft | 441 kts | 240° |
| 2026-04-22 03:56 | 23.42541 | 119.34436 | 35889 ft | 441 kts | 240° |
| 2026-04-22 03:56 | 23.39270 | 119.28820 | 35888 ft | 441 kts | 240° |
| 2026-04-22 03:57 | 23.35997 | 119.23205 | 35887 ft | 441 kts | 240° |
| 2026-04-22 03:57 | 23.32702 | 119.17556 | 35888 ft | 441 kts | 240° |
| 2026-04-22 03:58 | 23.29401 | 119.11906 | 35887 ft | 442 kts | 240° |
| 2026-04-22 03:58 | 23.26123 | 119.06296 | 35888 ft | 442 kts | 240° |
| 2026-04-22 03:59 | 23.22817 | 119.00645 | 35887 ft | 442 kts | 240° |
| 2026-04-22 03:59 | 23.19526 | 118.95028 | 35887 ft | 442 kts | 240° |
| 2026-04-22 04:00 | 23.16215 | 118.89387 | 35888 ft | 442 kts | 240° |
| 2026-04-22 04:00 | 23.12916 | 118.83767 | 35886 ft | 442 kts | 240° |
| 2026-04-22 04:01 | 23.09592 | 118.78111 | 35888 ft | 442 kts | 240° |
| 2026-04-22 04:01 | 23.06300 | 118.72513 | 35888 ft | 442 kts | 240° |
| 2026-04-22 04:02 | 23.02980 | 118.66879 | 35888 ft | 442 kts | 240° |
| 2026-04-22 04:02 | 22.99658 | 118.61244 | 35888 ft | 442 kts | 240° |
| 2026-04-22 04:03 | 22.96394 | 118.55718 | 35890 ft | 432 kts | 240° |
| 2026-04-22 04:03 | 22.93148 | 118.50241 | 35889 ft | 429 kts | 240° |
| 2026-04-22 04:04 | 22.89918 | 118.44810 | 35887 ft | 431 kts | 240° |
| 2026-04-22 04:04 | 22.86654 | 118.39330 | 35887 ft | 432 kts | 240° |
| 2026-04-22 04:05 | 22.83399 | 118.33875 | 35888 ft | 432 kts | 240° |
| 2026-04-22 04:05 | 22.80148 | 118.28428 | 35888 ft | 432 kts | 240° |
| 2026-04-22 04:06 | 22.76876 | 118.22946 | 35888 ft | 431 kts | 240° |
| 2026-04-22 04:06 | 22.73632 | 118.17521 | 35887 ft | 431 kts | 240° |
| 2026-04-22 04:07 | 22.70915 | 118.12982 | 35888 ft | 431 kts | 240° |
| 2026-04-22 04:07 | 22.67111 | 118.06634 | 35888 ft | 431 kts | 240° |
| 2026-04-22 04:08 | 22.64380 | 118.02081 | 35889 ft | 431 kts | 240° |
| 2026-04-22 04:08 | 22.61120 | 117.96654 | 35888 ft | 431 kts | 240° |
| 2026-04-22 04:09 | 22.57862 | 117.91196 | 35888 ft | 432 kts | 240° |
| 2026-04-22 04:09 | 22.54610 | 117.85715 | 35887 ft | 432 kts | 240° |
| 2026-04-22 04:10 | 22.51379 | 117.80273 | 35888 ft | 432 kts | 240° |
| 2026-04-22 04:10 | 22.48123 | 117.74802 | 35887 ft | 432 kts | 240° |
| 2026-04-22 04:11 | 22.44879 | 117.69356 | 35888 ft | 432 kts | 240° |
| 2026-04-22 04:11 | 22.41614 | 117.63885 | 35888 ft | 432 kts | 240° |
| 2026-04-22 04:12 | 22.38369 | 117.58457 | 35856 ft | 432 kts | 240° |
| 2026-04-22 04:12 | 22.35604 | 117.52742 | 35866 ft | 427 kts | 253° |
| 2026-04-22 04:13 | 22.34553 | 117.46479 | 35863 ft | 423 kts | 270° |
| 2026-04-22 04:13 | 22.35313 | 117.40200 | 35853 ft | 424 kts | 281° |
| 2026-04-22 04:14 | 22.36631 | 117.33961 | 35857 ft | 425 kts | 283° |
| 2026-04-22 04:14 | 22.38004 | 117.27787 | 35866 ft | 425 kts | 282° |
| 2026-04-22 04:15 | 22.39356 | 117.21552 | 35865 ft | 424 kts | 282° |
| 2026-04-22 04:15 | 22.40665 | 117.15371 | 35854 ft | 424 kts | 282° |
| 2026-04-22 04:16 | 22.42626 | 117.06025 | 35861 ft | 425 kts | 282° |
| 2026-04-22 04:17 | 22.43925 | 116.99827 | 35854 ft | 425 kts | 282° |
| 2026-04-22 04:17 | 22.45234 | 116.93572 | 35852 ft | 424 kts | 282° |
| 2026-04-22 04:18 | 22.46530 | 116.87368 | 35863 ft | 424 kts | 282° |
| 2026-04-22 04:18 | 22.47826 | 116.81163 | 35857 ft | 425 kts | 282° |
| 2026-04-22 04:19 | 22.49117 | 116.74955 | 35860 ft | 424 kts | 282° |
| 2026-04-22 04:19 | 22.50315 | 116.68698 | 35860 ft | 425 kts | 277° |
| 2026-04-22 04:20 | 22.50429 | 116.62286 | 35862 ft | 425 kts | 269° |
| 2026-04-22 04:20 | 22.50124 | 116.55927 | 35863 ft | 426 kts | 267° |
| 2026-04-22 04:21 | 22.49738 | 116.49526 | 35866 ft | 426 kts | 267° |
| 2026-04-22 04:21 | 22.49359 | 116.43121 | 35865 ft | 426 kts | 267° |
| 2026-04-22 04:22 | 22.48996 | 116.36757 | 35857 ft | 426 kts | 267° |
| 2026-04-22 04:22 | 22.48634 | 116.30353 | 35861 ft | 426 kts | 267° |
| 2026-04-22 04:23 | 22.48268 | 116.23947 | 35871 ft | 426 kts | 267° |
| 2026-04-22 04:23 | 22.47901 | 116.17558 | 35864 ft | 426 kts | 267° |
| 2026-04-22 04:24 | 22.47531 | 116.11154 | 35870 ft | 426 kts | 267° |
| 2026-04-22 04:24 | 22.47160 | 116.04778 | 35866 ft | 426 kts | 267° |
| 2026-04-22 04:25 | 22.46784 | 115.98408 | 35871 ft | 426 kts | 267° |
| 2026-04-22 04:25 | 22.46406 | 115.91993 | 35877 ft | 427 kts | 267° |
| 2026-04-22 04:26 | 22.46025 | 115.85579 | 35865 ft | 427 kts | 267° |
| 2026-04-22 04:26 | 22.45644 | 115.79201 | 35860 ft | 427 kts | 267° |
| 2026-04-22 04:27 | 22.45257 | 115.72792 | 35866 ft | 427 kts | 267° |
| 2026-04-22 04:27 | 22.44870 | 115.66422 | 35871 ft | 426 kts | 267° |
| 2026-04-22 04:28 | 22.44477 | 115.60000 | 35874 ft | 426 kts | 267° |
| 2026-04-22 04:28 | 22.44086 | 115.53629 | 35881 ft | 427 kts | 267° |
| 2026-04-22 04:29 | 22.43690 | 115.47198 | 35879 ft | 427 kts | 267° |
| 2026-04-22 04:29 | 22.43291 | 115.40824 | 35867 ft | 427 kts | 267° |
| 2026-04-22 04:30 | 22.42891 | 115.34414 | 35871 ft | 426 kts | 267° |
| 2026-04-22 04:30 | 22.42489 | 115.28012 | 35881 ft | 426 kts | 267° |
| 2026-04-22 04:31 | 22.42084 | 115.21640 | 35880 ft | 426 kts | 267° |
| 2026-04-22 04:31 | 22.41676 | 115.15246 | 35659 ft | 434 kts | 267° |
| 2026-04-22 04:31 | 22.41466 | 115.11972 | 35402 ft | 438 kts | 267° |
| 2026-04-22 04:32 | 22.41255 | 115.08688 | 35080 ft | 436 kts | 267° |
| 2026-04-22 04:32 | 22.41043 | 115.05425 | 34537 ft | 435 kts | 267° |
| 2026-04-22 04:32 | 22.40832 | 115.02162 | 33915 ft | 436 kts | 267° |
| 2026-04-22 04:32 | 22.40618 | 114.98885 | 33286 ft | 437 kts | 267° |
| 2026-04-22 04:33 | 22.40404 | 114.95605 | 32653 ft | 437 kts | 267° |
| 2026-04-22 04:33 | 22.40192 | 114.92360 | 32003 ft | 438 kts | 267° |
| 2026-04-22 04:33 | 22.39976 | 114.89066 | 31332 ft | 439 kts | 267° |
| 2026-04-22 04:33 | 22.39758 | 114.85757 | 30663 ft | 440 kts | 266° |
| 2026-04-22 04:34 | 22.39542 | 114.82479 | 30228 ft | 435 kts | 266° |
| 2026-04-22 04:34 | 22.39329 | 114.79271 | 29785 ft | 430 kts | 266° |
| 2026-04-22 04:34 | 22.39116 | 114.76050 | 29315 ft | 426 kts | 266° |
| 2026-04-22 04:34 | 22.38905 | 114.72865 | 28853 ft | 423 kts | 266° |
| 2026-04-22 04:35 | 22.38693 | 114.69709 | 28393 ft | 419 kts | 266° |
| 2026-04-22 04:35 | 22.38486 | 114.66619 | 27964 ft | 415 kts | 266° |
| 2026-04-22 04:35 | 22.38277 | 114.63521 | 27515 ft | 411 kts | 266° |
| 2026-04-22 04:35 | 22.38069 | 114.60445 | 27061 ft | 407 kts | 266° |
| 2026-04-22 04:36 | 22.37863 | 114.57406 | 26617 ft | 404 kts | 266° |
| 2026-04-22 04:36 | 22.37661 | 114.54390 | 26158 ft | 401 kts | 266° |
| 2026-04-22 04:36 | 22.37457 | 114.51392 | 25717 ft | 397 kts | 266° |
| 2026-04-22 04:36 | 22.37257 | 114.48458 | 25270 ft | 394 kts | 266° |
| 2026-04-22 04:37 | 22.37056 | 114.45511 | 24826 ft | 391 kts | 266° |
| 2026-04-22 04:37 | 22.36855 | 114.42581 | 24387 ft | 388 kts | 266° |
| 2026-04-22 04:37 | 22.36655 | 114.39698 | 23940 ft | 385 kts | 266° |
| 2026-04-22 04:37 | 22.36457 | 114.36812 | 23503 ft | 384 kts | 266° |
| 2026-04-22 04:38 | 22.36259 | 114.33942 | 23071 ft | 382 kts | 266° |
| 2026-04-22 04:38 | 22.36061 | 114.31079 | 22628 ft | 380 kts | 266° |
| 2026-04-22 04:38 | 22.35865 | 114.28238 | 22190 ft | 377 kts | 266° |
| 2026-04-22 04:38 | 22.35672 | 114.25445 | 21770 ft | 375 kts | 266° |
| 2026-04-22 04:39 | 22.35478 | 114.22650 | 21336 ft | 373 kts | 266° |
| 2026-04-22 04:39 | 22.35282 | 114.19857 | 20915 ft | 371 kts | 266° |
| 2026-04-22 04:39 | 22.35088 | 114.17078 | 20489 ft | 369 kts | 266° |
| 2026-04-22 04:39 | 22.34895 | 114.14317 | 20065 ft | 367 kts | 266° |
| 2026-04-22 04:40 | 22.34702 | 114.11572 | 19650 ft | 364 kts | 266° |
| 2026-04-22 04:40 | 22.34512 | 114.08885 | 19235 ft | 361 kts | 266° |
| 2026-04-22 04:40 | 22.34321 | 114.06183 | 18833 ft | 359 kts | 266° |
| 2026-04-22 04:40 | 22.34131 | 114.03501 | 18416 ft | 357 kts | 266° |
| 2026-04-22 04:41 | 22.33940 | 114.00830 | 18011 ft | 355 kts | 265° |
| 2026-04-22 04:41 | 22.33671 | 113.98177 | 17544 ft | 356 kts | 259° |
| 2026-04-22 04:41 | 22.32910 | 113.95643 | 17122 ft | 355 kts | 244° |
| 2026-04-22 04:41 | 22.31523 | 113.93495 | 16766 ft | 354 kts | 228° |
| 2026-04-22 04:42 | 22.29687 | 113.91715 | 16348 ft | 354 kts | 221° |
| 2026-04-22 04:42 | 22.27765 | 113.90060 | 15930 ft | 352 kts | 220° |
| 2026-04-22 04:42 | 22.25844 | 113.88427 | 15513 ft | 349 kts | 220° |
| 2026-04-22 04:42 | 22.23942 | 113.86805 | 15101 ft | 348 kts | 220° |
| 2026-04-22 04:43 | 22.22064 | 113.85194 | 14704 ft | 348 kts | 220° |
| 2026-04-22 04:43 | 22.20172 | 113.83566 | 14285 ft | 346 kts | 220° |
| 2026-04-22 04:43 | 22.18291 | 113.81947 | 13878 ft | 343 kts | 221° |
| 2026-04-22 04:43 | 22.16434 | 113.80348 | 13482 ft | 340 kts | 220° |
| 2026-04-22 04:44 | 22.14594 | 113.78763 | 13078 ft | 336 kts | 221° |
| 2026-04-22 04:44 | 22.12796 | 113.77213 | 12670 ft | 334 kts | 221° |
| 2026-04-22 04:44 | 22.10983 | 113.75647 | 12274 ft | 333 kts | 221° |
| 2026-04-22 04:44 | 22.09175 | 113.74088 | 11871 ft | 331 kts | 220° |
| 2026-04-22 04:45 | 22.07380 | 113.72542 | 11486 ft | 328 kts | 220° |
| 2026-04-22 04:45 | 22.05597 | 113.71008 | 11091 ft | 326 kts | 220° |
| 2026-04-22 04:45 | 22.03900 | 113.69364 | 10776 ft | 338 kts | 229° |
| 2026-04-22 04:45 | 22.02631 | 113.67220 | 10212 ft | 340 kts | 248° |
| 2026-04-22 04:46 | 22.02122 | 113.64734 | 9689 ft | 340 kts | 267° |
| 2026-04-22 04:46 | 22.02582 | 113.62276 | 9425 ft | 335 kts | 292° |
| 2026-04-22 04:46 | 22.03958 | 113.60316 | 9222 ft | 331 kts | 315° |
| 2026-04-22 04:46 | 22.05797 | 113.58870 | 9070 ft | 321 kts | 322° |
| 2026-04-22 04:47 | 22.07646 | 113.57578 | 8942 ft | 309 kts | 323° |
| 2026-04-22 04:47 | 22.09428 | 113.56331 | 8698 ft | 302 kts | 322° |
| 2026-04-22 04:47 | 22.11153 | 113.55095 | 8281 ft | 301 kts | 321° |
| 2026-04-22 04:47 | 22.12869 | 113.53808 | 7974 ft | 296 kts | 321° |
| 2026-04-22 04:48 | 22.14555 | 113.52526 | 7568 ft | 296 kts | 320° |
| 2026-04-22 04:48 | 22.16231 | 113.51240 | 7179 ft | 295 kts | 320° |
| 2026-04-22 04:48 | 22.17908 | 113.49950 | 6826 ft | 294 kts | 320° |
| 2026-04-22 04:48 | 22.19572 | 113.48674 | 6490 ft | 293 kts | 322° |
| 2026-04-22 04:49 | 22.21378 | 113.47710 | 6079 ft | 298 kts | 343° |
| 2026-04-22 04:49 | 22.23460 | 113.47724 | 5642 ft | 305 kts | 15° |
| 2026-04-22 04:49 | 22.25372 | 113.48702 | 5319 ft | 302 kts | 30° |
| 2026-04-22 04:49 | 22.27135 | 113.49901 | 5091 ft | 296 kts | 32° |
| 2026-04-22 04:50 | 22.28830 | 113.51082 | 4876 ft | 289 kts | 32° |
| 2026-04-22 04:50 | 22.30504 | 113.52241 | 4628 ft | 283 kts | 32° |
| 2026-04-22 04:50 | 22.32162 | 113.53380 | 4397 ft | 278 kts | 32° |
| 2026-04-22 04:50 | 22.33787 | 113.54487 | 4180 ft | 273 kts | 32° |
| 2026-04-22 04:51 | 22.35350 | 113.55588 | 3994 ft | 264 kts | 39° |
| 2026-04-22 04:51 | 22.36371 | 113.57126 | 3766 ft | 253 kts | 76° |
| 2026-04-22 04:51 | 22.36554 | 113.58959 | 3570 ft | 241 kts | 94° |
| 2026-04-22 04:51 | 22.36277 | 113.60707 | 3362 ft | 233 kts | 118° |
| 2026-04-22 04:52 | 22.35250 | 113.61929 | 3253 ft | 213 kts | 154° |
| 2026-04-22 04:52 | 22.33935 | 113.62489 | 3153 ft | 200 kts | 165° |
| 2026-04-22 04:52 | 22.32602 | 113.62908 | 2908 ft | 200 kts | 166° |
| 2026-04-22 04:52 | 22.31283 | 113.63297 | 2730 ft | 193 kts | 167° |
| 2026-04-22 04:53 | 22.30004 | 113.63683 | 2603 ft | 190 kts | 167° |
| 2026-04-22 04:53 | 22.28721 | 113.63896 | 2428 ft | 189 kts | 183° |
| 2026-04-22 04:53 | 22.27478 | 113.63488 | 2089 ft | 188 kts | 208° |
| 2026-04-22 04:53 | 22.26383 | 113.62718 | 1842 ft | 188 kts | 214° |
| 2026-04-22 04:54 | 22.25339 | 113.61900 | 1786 ft | 177 kts | 215° |
| 2026-04-22 04:54 | 22.24400 | 113.61163 | 1710 ft | 159 kts | 214° |
| 2026-04-22 04:54 | 22.23546 | 113.60496 | 1460 ft | 147 kts | 214° |
| 2026-04-22 04:54 | 22.22741 | 113.59898 | 1278 ft | 135 kts | 212° |
| 2026-04-22 04:55 | 22.21965 | 113.59330 | 1060 ft | 134 kts | 213° |
| 2026-04-22 04:55 | 22.21205 | 113.58771 | 946 ft | 133 kts | 212° |
| 2026-04-22 04:55 | 22.20359 | 113.58369 | 880 ft | 134 kts | 194° |
| 2026-04-22 04:55 | 22.19422 | 113.58264 | 718 ft | 135 kts | 184° |
| 2026-04-22 04:56 | 22.18477 | 113.58214 | 575 ft | 136 kts | 183° |
| 2026-04-22 04:56 | 22.17542 | 113.58296 | 350 ft | 137 kts | 173° |
| 2026-04-22 04:56 | 22.16616 | 113.58544 | 134 ft | 137 kts | 165° |
| 2026-04-22 04:56 | 22.15713 | 113.58866 | 34 ft | 133 kts | 163° |
| 2026-04-22 04:57 | 22.15020 | 113.59117 | 32 ft | 65 kts | 161° |
| 2026-04-22 04:57 | 22.14811 | 113.59193 | 31 ft | 43 kts | 161° |
| 2026-04-22 04:57 | 22.14605 | 113.59217 | 31 ft | 14 kts | 232° |
| 2026-04-22 04:57 | 22.14580 | 113.59126 | 32 ft | 12 kts | 281° |
| 2026-04-22 04:58 | 22.14610 | 113.59083 | 32 ft | 11 kts | 330° |
| 2026-04-22 04:58 | 22.14681 | 113.59050 | 32 ft | 11 kts | 338° |
| 2026-04-22 04:58 | 22.14752 | 113.58997 | 32 ft | 15 kts | 306° |
| 2026-04-22 04:58 | 22.14823 | 113.58881 | 32 ft | 21 kts | 303° |
| 2026-04-22 04:59 | 22.14905 | 113.58748 | 32 ft | 22 kts | 304° |
| 2026-04-22 04:59 | 22.14995 | 113.58603 | 32 ft | 25 kts | 303° |
| 2026-04-22 04:59 | 22.15095 | 113.58441 | 32 ft | 27 kts | 303° |
| 2026-04-22 04:59 | 22.15203 | 113.58266 | 32 ft | 29 kts | 303° |
| 2026-04-22 05:00 | 22.15317 | 113.58082 | 32 ft | 30 kts | 303° |
| 2026-04-22 05:00 | 22.15417 | 113.57920 | 32 ft | 24 kts | 303° |
| 2026-04-22 05:00 | 22.15508 | 113.57769 | 31 ft | 24 kts | 304° |
| 2026-04-22 05:00 | 22.15595 | 113.57630 | 32 ft | 13 kts | 304° |
| 2026-04-22 05:01 | 22.15661 | 113.57615 | 32 ft | 10 kts | 24° |
| 2026-04-22 05:01 | 22.15712 | 113.57616 | 32 ft | 3 kts | 318° |
| 2026-04-22 05:01 | 22.15719 | 113.57600 | 32 ft | 2 kts | 300° |
| 2026-04-22 05:01 | 22.15725 | 113.57591 | 32 ft | 2 kts | 302° |
| 2026-04-22 05:02 | 22.15732 | 113.57579 | 32 ft | 1 kts | 302° |
| 2026-04-22 05:02 | 22.15737 | 113.57570 | 32 ft | 1 kts | 303° |